Time;durP1;ratioP1;P1;durP2;ratioP2;P2;SDS_P1;SDS_P2;PMS_P1;PMS_P2;Temp;Humidity;BMP_temperature;BMP_pressure;BME280_temperature;BME280_humidity;BME280_pressure;Samples;Min_cycle;Max_cycle;Signal;HPM_P1;HPM_P2
2022/01/30 00:01:47;;;;;;;45.95;5.28;;;;;;;5.33;100.00;102683.44;5053655;28;20055;-47
2022/01/30 00:04:12;;;;;;;25.52;3.80;;;;;;;5.33;100.00;102677.25;5043083;28;20539;-46
2022/01/30 00:06:38;;;;;;;27.98;3.70;;;;;;;5.34;100.00;102677.19;5055932;28;20031;-48
2022/01/30 00:09:06;;;;;;;36.85;4.18;;;;;;;5.32;100.00;102678.22;5053746;28;20052;-49
2022/01/30 00:11:35;;;;;;;28.38;3.72;;;;;;;5.27;100.00;102675.81;5053730;28;20051;-47
2022/01/30 00:14:02;;;;;;;29.98;3.67;;;;;;;5.22;100.00;102677.84;5054779;28;20794;-48
2022/01/30 00:16:32;;;;;;;34.88;4.00;;;;;;;5.12;100.00;102669.53;5057083;28;20366;-46
2022/01/30 00:19:09;;;;;;;31.05;4.53;;;;;;;5.13;100.00;102683.66;5054408;28;20415;-48
2022/01/30 00:21:40;;;;;;;33.28;3.72;;;;;;;5.13;100.00;102687.13;5054487;28;20194;-47
2022/01/30 00:24:14;;;;;;;42.05;4.07;;;;;;;5.10;100.00;102683.78;5036255;28;20025;-47
2022/01/30 00:26:41;;;;;;;39.78;4.55;;;;;;;5.09;100.00;102690.00;5062591;28;20216;-45
2022/01/30 00:29:07;;;;;;;46.83;4.30;;;;;;;5.07;100.00;102692.75;5073743;28;20440;-50
2022/01/30 00:31:34;;;;;;;33.15;4.10;;;;;;;5.10;100.00;102691.75;5074306;28;20031;-45
2022/01/30 00:33:59;;;;;;;37.17;4.95;;;;;;;5.14;100.00;102698.56;5053212;28;20024;-46
2022/01/30 00:36:25;;;;;;;35.75;4.22;;;;;;;5.08;100.00;102694.47;5050973;28;20028;-46
2022/01/30 00:38:51;;;;;;;29.10;3.97;;;;;;;5.02;100.00;102692.13;5044858;28;20025;-45
2022/01/30 00:41:17;;;;;;;35.03;3.78;;;;;;;4.95;100.00;102688.94;5047193;28;20032;-47
2022/01/30 00:43:43;;;;;;;37.72;4.70;;;;;;;4.96;100.00;102695.94;5035874;28;20045;-45
2022/01/30 00:46:08;;;;;;;31.33;3.70;;;;;;;4.91;100.00;102690.03;5033395;28;20173;-45
2022/01/30 00:48:33;;;;;;;32.80;3.90;;;;;;;5.00;100.00;102699.28;5034603;28;20118;-46
2022/01/30 00:50:58;;;;;;;35.63;3.53;;;;;;;5.01;100.00;102701.88;5033748;28;20123;-45
2022/01/30 00:53:25;;;;;;;31.52;4.07;;;;;;;4.99;100.00;102700.22;5035068;28;20455;-48
2022/01/30 00:55:50;;;;;;;38.38;4.10;;;;;;;4.96;100.00;102703.91;5052716;28;20095;-48
2022/01/30 00:58:15;;;;;;;29.75;3.55;;;;;;;4.93;100.00;102704.06;5054003;28;20610;-43
2022/01/30 01:00:41;;;;;;;38.58;5.45;;;;;;;4.89;100.00;102707.81;5036426;28;20032;-44
2022/01/30 01:03:06;;;;;;;30.13;4.13;;;;;;;4.85;100.00;102704.47;5054261;28;20425;-48
2022/01/30 01:05:34;;;;;;;33.40;4.40;;;;;;;4.82;100.00;102706.38;5053818;28;20544;-47
2022/01/30 01:08:08;;;;;;;32.00;3.78;;;;;;;4.74;100.00;102704.13;5053813;28;20033;-46
2022/01/30 01:23:52;;;;;;;23.02;3.83;;;;;;;4.68;100.00;102712.38;5054764;28;20066;-45
2022/01/30 01:26:19;;;;;;;35.75;3.80;;;;;;;4.63;100.00;102714.38;5052395;28;20025;-46
2022/01/30 01:28:45;;;;;;;33.97;3.50;;;;;;;4.61;100.00;102717.09;5053159;28;20461;-45
2022/01/30 01:31:11;;;;;;;31.38;3.78;;;;;;;4.59;100.00;102718.97;5054141;28;20052;-45
2022/01/30 01:36:08;;;;;;;;;;;;;;;4.54;100.00;102726.28;5053800;28;20350;-46
2022/01/30 01:38:33;;;;;;;25.05;2.88;;;;;;;4.55;100.00;102732.44;5053698;28;19919;-44
2022/01/30 01:40:59;;;;;;;43.75;4.53;;;;;;;4.57;100.00;102723.50;5052275;28;20024;-44
2022/01/30 01:43:25;;;;;;;38.85;4.00;;;;;;;4.56;100.00;102724.41;5053190;28;20020;-47
2022/01/30 01:45:53;;;;;;;34.20;4.47;;;;;;;4.56;100.00;102719.13;5053882;28;20029;-49
2022/01/30 01:48:19;;;;;;;35.28;4.78;;;;;;;4.54;100.00;102731.59;5053593;28;20085;-45
2022/01/30 01:50:53;;;;;;;36.65;3.78;;;;;;;4.53;100.00;102739.59;5053591;28;20396;-47
2022/01/30 01:53:22;;;;;;;32.17;4.22;;;;;;;4.48;100.00;102745.09;5054105;28;20016;-47
2022/01/30 01:55:47;;;;;;;36.30;3.88;;;;;;;4.44;100.00;102743.53;5051515;28;20033;-47
2022/01/30 01:58:12;;;;;;;26.50;3.28;;;;;;;4.38;100.00;102747.34;5054968;28;20035;-44
2022/01/30 02:00:38;;;;;;;45.88;5.10;;;;;;;4.32;100.00;102739.69;5052327;28;20798;-46
2022/01/30 02:03:04;;;;;;;41.95;4.30;;;;;;;4.27;100.00;102736.41;5039463;28;20290;-45
2022/01/30 02:05:33;;;;;;;43.90;4.43;;;;;;;4.25;100.00;102727.72;5050112;28;20428;-47
2022/01/30 02:27:21;;;;;;;34.03;3.70;;;;;;;4.38;100.00;102725.31;5056456;28;20309;-46
2022/01/30 02:29:47;;;;;;;31.27;4.20;;;;;;;4.34;100.00;102729.91;5056290;28;20028;-47
2022/01/30 02:32:13;;;;;;;36.20;3.65;;;;;;;4.30;100.00;102739.78;5056488;28;20079;-47
2022/01/30 02:34:39;;;;;;;36.78;3.25;;;;;;;4.30;100.00;102734.47;5056202;28;20755;-43
2022/01/30 02:37:05;;;;;;;39.28;5.10;;;;;;;4.33;100.00;102732.63;5056908;28;20036;-45
2022/01/30 02:39:31;;;;;;;36.53;3.92;;;;;;;4.36;100.00;102730.72;5055609;28;20383;-44
2022/01/30 02:41:57;;;;;;;26.88;3.33;;;;;;;4.34;100.00;102731.69;5055942;28;20050;-46
2022/01/30 02:44:33;;;;;;;30.30;3.67;;;;;;;4.29;100.00;102722.22;5056842;28;20101;-45
2022/01/30 02:47:05;;;;;;;51.63;5.18;;;;;;;4.29;100.00;102718.69;5056418;28;20027;-46
2022/01/30 02:49:44;;;;;;;39.55;4.68;;;;;;;4.30;100.00;102717.75;5056092;28;20449;-46
2022/01/30 02:52:11;;;;;;;28.63;3.42;;;;;;;4.34;100.00;102707.88;5056540;28;20094;-46
2022/01/30 02:54:37;;;;;;;44.72;5.63;;;;;;;4.38;100.00;102707.69;5055558;28;20121;-46
2022/01/30 02:57:03;;;;;;;31.55;3.13;;;;;;;4.35;100.00;102725.47;5055434;28;20047;-48
2022/01/30 02:59:28;;;;;;;29.08;3.03;;;;;;;4.28;100.00;102730.22;5056025;28;20036;-45
2022/01/30 03:01:53;;;;;;;25.30;3.38;;;;;;;4.25;100.00;102730.34;5056758;28;20020;-45
2022/01/30 03:04:19;;;;;;;27.20;3.28;;;;;;;4.19;100.00;102734.16;5055893;28;20427;-46
2022/01/30 03:06:46;;;;;;;40.47;4.85;;;;;;;4.19;100.00;102735.91;5056100;28;20027;-43
2022/01/30 03:09:11;;;;;;;34.33;3.25;;;;;;;4.18;100.00;102744.81;5056145;28;20096;-45
2022/01/30 03:11:37;;;;;;;39.45;4.10;;;;;;;4.14;100.00;102748.50;5053640;28;20058;-48
2022/01/30 03:14:03;;;;;;;28.75;3.63;;;;;;;4.17;100.00;102748.38;5056339;28;20028;-45
2022/01/30 03:16:29;;;;;;;29.98;3.47;;;;;;;4.18;100.00;102755.38;5056382;28;20135;-43
2022/01/30 03:18:54;;;;;;;35.38;3.40;;;;;;;4.25;100.00;102757.66;5056144;28;20131;-44
2022/01/30 03:21:20;;;;;;;32.95;4.05;;;;;;;4.32;100.00;102763.50;5054878;28;20518;-46
2022/01/30 03:23:46;;;;;;;40.97;4.22;;;;;;;4.38;100.00;102768.50;5055932;28;20047;-46
2022/01/30 03:26:13;;;;;;;28.77;2.92;;;;;;;4.41;100.00;102767.50;5053607;28;20017;-48
2022/01/30 03:28:40;;;;;;;34.95;3.75;;;;;;;4.44;100.00;102767.34;5055626;28;20155;-46
2022/01/30 03:31:09;;;;;;;27.08;3.30;;;;;;;4.52;100.00;102772.28;5037806;28;20024;-48
2022/01/30 03:33:34;;;;;;;43.40;4.25;;;;;;;4.57;100.00;102778.22;5055798;28;20039;-50
2022/01/30 03:36:00;;;;;;;31.52;3.63;;;;;;;4.62;100.00;102787.63;5055411;28;20024;-48
2022/01/30 03:38:26;;;;;;;35.70;4.60;;;;;;;4.64;100.00;102795.50;5055434;28;20016;-47
2022/01/30 03:40:53;;;;;;;25.15;2.70;;;;;;;4.60;100.00;102788.63;5052834;28;20028;-47
2022/01/30 03:43:18;;;;;;;29.27;3.15;;;;;;;4.56;100.00;102802.94;5055737;28;20029;-47
2022/01/30 03:45:44;;;;;;;32.42;2.88;;;;;;;4.58;100.00;102806.38;5055772;28;20505;-46
2022/01/30 03:48:12;;;;;;;23.77;3.13;;;;;;;4.53;100.00;102803.97;5056231;28;20460;-50
2022/01/30 03:50:38;;;;;;;24.77;2.80;;;;;;;4.50;100.00;102817.34;5055070;28;20029;-46
2022/01/30 03:53:03;;;;;;;27.27;2.90;;;;;;;4.57;100.00;102816.13;5055816;28;20580;-45
2022/01/30 03:55:28;;;;;;;27.55;3.63;;;;;;;4.51;100.00;102819.03;5052984;28;20519;-48
2022/01/30 03:57:54;;;;;;;21.63;2.50;;;;;;;4.46;100.00;102827.22;5054747;28;20020;-48
2022/01/30 04:00:19;;;;;;;21.98;2.35;;;;;;;4.40;100.00;102824.00;5055357;28;20024;-46
2022/01/30 04:02:45;;;;;;;31.25;2.85;;;;;;;4.31;100.00;102819.97;5055129;28;20193;-44
2022/01/30 04:05:11;;;;;;;24.17;2.90;;;;;;;4.24;100.00;102824.72;5055165;28;20028;-44
2022/01/30 04:07:36;;;;;;;21.67;2.40;;;;;;;4.21;100.00;102838.06;5055029;28;20524;-45
2022/01/30 04:10:04;;;;;;;29.95;3.22;;;;;;;4.22;100.00;102837.13;5054314;28;20040;-44
2022/01/30 04:12:30;;;;;;;16.75;1.83;;;;;;;4.27;100.00;102834.28;5053363;28;20320;-46
2022/01/30 04:14:55;;;;;;;19.92;2.65;;;;;;;4.34;100.00;102840.16;5055332;28;20428;-48
2022/01/30 04:17:21;;;;;;;20.02;2.28;;;;;;;4.39;100.00;102843.44;5054481;28;20021;-46
2022/01/30 04:19:47;;;;;;;18.05;2.03;;;;;;;4.42;100.00;102841.50;5054259;28;20059;-45
2022/01/30 04:22:13;;;;;;;21.52;2.10;;;;;;;4.45;100.00;102837.88;5054787;28;20020;-48
2022/01/30 04:24:38;;;;;;;20.95;2.83;;;;;;;4.45;100.00;102841.38;5054409;28;20246;-46
2022/01/30 04:27:04;;;;;;;18.35;2.25;;;;;;;4.44;100.00;102834.34;5052669;28;20029;-47
2022/01/30 04:29:29;;;;;;;18.25;2.10;;;;;;;4.48;100.00;102843.00;5054586;28;20118;-46
2022/01/30 04:31:54;;;;;;;12.73;1.95;;;;;;;4.47;100.00;102839.50;5054461;28;20027;-49
2022/01/30 04:34:21;;;;;;;16.67;1.95;;;;;;;4.49;100.00;102842.91;5054296;28;20108;-49
2022/01/30 04:37:02;;;;;;;14.48;2.10;;;;;;;4.50;100.00;102835.88;5054197;28;20557;-45
2022/01/30 04:53:23;;;;;;;20.50;1.90;;;;;;;4.36;98.76;102835.63;5055295;28;20497;-47
2022/01/30 05:01:50;;;;;;;16.33;2.03;;;;;;;4.03;100.00;102855.63;5054329;28;20089;-49
2022/01/30 05:09:19;;;;;;;24.38;2.83;;;;;;;3.90;100.00;102873.84;5053566;28;20109;-45
2022/01/30 05:11:44;;;;;;;18.55;2.67;;;;;;;3.89;100.00;102876.53;5053562;28;20040;-47
2022/01/30 05:14:10;;;;;;;25.20;2.38;;;;;;;3.89;100.00;102879.19;5054987;28;20247;-47
2022/01/30 05:16:38;;;;;;;19.77;2.33;;;;;;;3.86;100.00;102885.44;5053060;28;20024;-47
2022/01/30 05:19:03;;;;;;;18.42;2.25;;;;;;;3.83;100.00;102882.09;5035995;28;20020;-45
2022/01/30 05:21:29;;;;;;;22.40;2.58;;;;;;;3.79;100.00;102870.78;5053849;28;20125;-47
2022/01/30 05:23:54;;;;;;;18.77;2.08;;;;;;;3.74;100.00;102870.13;5054357;28;20625;-46
2022/01/30 05:26:23;;;;;;;20.70;2.15;;;;;;;3.70;100.00;102868.53;5052775;28;20055;-46
2022/01/30 05:28:48;;;;;;;15.57;1.98;;;;;;;3.67;100.00;102880.09;5053593;28;20024;-46
2022/01/30 05:31:14;;;;;;;24.50;2.60;;;;;;;3.64;100.00;102884.66;5053911;28;20538;-48
2022/01/30 05:33:39;;;;;;;19.33;2.17;;;;;;;3.62;100.00;102884.72;5056246;28;20031;-47
2022/01/30 05:36:06;;;;;;;23.95;2.20;;;;;;;3.61;100.00;102876.88;5058143;28;20078;-47
2022/01/30 05:38:32;;;;;;;21.30;2.63;;;;;;;3.61;100.00;102893.56;5057839;28;20062;-43
2022/01/30 05:40:58;;;;;;;19.52;2.22;;;;;;;3.61;100.00;102876.88;5056936;28;20054;-44
2022/01/30 05:43:27;;;;;;;22.20;2.10;;;;;;;3.61;100.00;102885.66;5039792;28;20051;-46
2022/01/30 05:46:05;;;;;;;19.92;2.10;;;;;;;3.57;100.00;102872.66;5038464;28;20277;-44
2022/01/30 05:48:31;;;;;;;20.65;2.35;;;;;;;3.55;100.00;102888.56;5057327;28;20032;-46
2022/01/30 05:50:56;;;;;;;22.00;2.20;;;;;;;3.51;100.00;102882.56;5057613;28;20465;-47
2022/01/30 05:53:22;;;;;;;22.20;2.60;;;;;;;3.47;100.00;102885.38;5057824;28;20039;-46
2022/01/30 05:55:47;;;;;;;20.58;2.22;;;;;;;3.47;100.00;102893.31;5056600;28;20416;-45
2022/01/30 05:58:12;;;;;;;17.95;2.00;;;;;;;3.44;100.00;102891.63;5057269;28;20020;-45
2022/01/30 06:00:37;;;;;;;22.13;2.13;;;;;;;3.42;100.00;102895.28;5057658;28;20024;-47
2022/01/30 06:03:03;;;;;;;22.08;2.63;;;;;;;3.39;100.00;102895.41;5058061;28;20380;-49
2022/01/30 06:05:28;;;;;;;17.02;1.77;;;;;;;3.39;100.00;102903.31;5057095;28;20035;-45
2022/01/30 06:07:55;;;;;;;21.05;2.72;;;;;;;3.42;100.00;102905.84;5057493;28;20021;-47
2022/01/30 06:10:23;;;;;;;15.07;1.92;;;;;;;3.43;100.00;102910.19;5056410;28;20023;-46
2022/01/30 06:12:49;;;;;;;23.83;2.55;;;;;;;3.46;100.00;102913.59;5056477;28;20020;-47
2022/01/30 06:15:15;;;;;;;21.05;2.63;;;;;;;3.59;99.62;102916.56;5057223;28;20043;-45
2022/01/30 06:17:42;;;;;;;16.48;1.90;;;;;;;3.68;99.55;102921.47;5057720;28;20051;-47
2022/01/30 06:20:07;;;;;;;21.08;2.30;;;;;;;3.70;100.00;102916.97;5056827;28;20146;-50
2022/01/30 06:22:33;;;;;;;19.15;1.92;;;;;;;3.71;100.00;102915.19;5056266;28;20099;-49
2022/01/30 06:24:58;;;;;;;21.15;2.60;;;;;;;3.71;100.00;102909.91;5056688;28;20500;-47
2022/01/30 06:27:23;;;;;;;13.60;2.03;;;;;;;3.71;100.00;102910.75;5056428;28;20446;-46
2022/01/30 06:29:49;;;;;;;24.05;2.88;;;;;;;3.71;100.00;102901.97;5037693;28;20037;-46
2022/01/30 06:32:16;;;;;;;24.38;2.53;;;;;;;3.70;100.00;102905.53;5067631;28;20036;-50
2022/01/30 06:34:41;;;;;;;17.42;2.33;;;;;;;3.71;100.00;102909.91;5062263;28;20123;-45
2022/01/30 06:37:06;;;;;;;18.77;2.38;;;;;;;3.71;100.00;102910.75;5066286;28;20025;-44
2022/01/30 06:39:32;;;;;;;18.60;2.45;;;;;;;3.72;100.00;102915.13;5064583;28;20070;-44
2022/01/30 06:41:57;;;;;;;27.98;2.80;;;;;;;3.67;100.00;102913.59;5067205;28;20131;-46
2022/01/30 06:44:22;;;;;;;31.08;2.50;;;;;;;3.66;100.00;102909.22;5064026;28;20082;-45
2022/01/30 06:46:47;;;;;;;17.60;2.70;;;;;;;3.62;100.00;102911.16;5064805;28;20051;-48
2022/01/30 06:49:13;;;;;;;22.67;2.60;;;;;;;3.61;100.00;102920.00;5066949;28;20402;-46
2022/01/30 06:51:38;;;;;;;21.40;2.35;;;;;;;3.60;100.00;102922.69;5061860;28;20107;-45
2022/01/30 06:54:04;;;;;;;20.60;2.53;;;;;;;3.54;100.00;102929.09;5058955;28;20555;-45
2022/01/30 06:56:29;;;;;;;19.90;2.30;;;;;;;3.49;100.00;102933.72;5055588;28;20044;-47
2022/01/30 06:58:56;;;;;;;27.15;2.40;;;;;;;3.43;100.00;102936.59;5056754;28;20028;-44
2022/01/30 07:01:25;;;;;;;21.08;2.53;;;;;;;3.38;100.00;102928.00;5055203;28;20196;-46
2022/01/30 07:03:52;;;;;;;25.92;2.88;;;;;;;3.38;100.00;102943.84;5057212;28;20028;-46
2022/01/30 07:06:17;;;;;;;24.85;2.70;;;;;;;3.35;100.00;102942.22;5058343;28;20101;-47
2022/01/30 07:08:42;;;;;;;35.15;3.60;;;;;;;3.36;100.00;102960.66;5056811;28;20020;-49
2022/01/30 07:11:07;;;;;;;24.77;2.95;;;;;;;3.39;100.00;102953.50;5055085;28;20145;-45
2022/01/30 07:13:33;;;;;;;18.95;2.47;;;;;;;3.40;100.00;102952.59;5056386;28;20468;-46
2022/01/30 07:15:58;;;;;;;28.35;2.55;;;;;;;3.36;100.00;102960.66;5039176;28;20063;-47
2022/01/30 07:18:23;;;;;;;23.33;2.38;;;;;;;3.33;100.00;102962.56;5047498;28;20031;-45
2022/01/30 07:20:49;;;;;;;35.55;2.90;;;;;;;3.32;100.00;102964.31;5055227;28;20076;-44
2022/01/30 07:23:14;;;;;;;24.35;3.40;;;;;;;3.28;100.00;102956.59;5055986;28;20032;-46
2022/01/30 07:25:41;;;;;;;31.25;2.97;;;;;;;3.27;100.00;102963.63;5055538;28;20050;-45
2022/01/30 07:28:06;;;;;;;23.85;2.95;;;;;;;3.30;100.00;102960.03;5055230;28;20021;-45
2022/01/30 07:30:31;;;;;;;27.08;2.78;;;;;;;3.28;100.00;102967.16;5055432;28;20419;-47
2022/01/30 07:32:57;;;;;;;32.75;2.63;;;;;;;3.26;100.00;102974.25;5054422;28;20104;-45
2022/01/30 07:35:22;;;;;;;23.85;2.83;;;;;;;3.32;100.00;102974.03;5055232;28;20044;-45
2022/01/30 07:37:48;;;;;;;32.95;4.03;;;;;;;3.39;100.00;102980.78;5058640;28;20112;-45
2022/01/30 07:40:13;;;;;;;26.35;2.67;;;;;;;3.40;100.00;102993.06;5075121;28;20134;-45
2022/01/30 07:42:39;;;;;;;27.00;3.30;;;;;;;3.44;100.00;102989.38;5075525;28;20508;-46
2022/01/30 07:45:05;;;;;;;18.15;2.50;;;;;;;3.43;100.00;103000.00;5069517;28;20031;-49
2022/01/30 07:47:30;;;;;;;26.30;2.55;;;;;;;3.42;100.00;102995.66;5055887;28;20050;-45
2022/01/30 07:49:56;;;;;;;26.60;3.33;;;;;;;3.42;100.00;102999.16;5053616;28;20188;-44
2022/01/30 07:52:22;;;;;;;38.20;3.33;;;;;;;3.50;100.00;103004.13;5057422;28;20047;-47
2022/01/30 07:54:49;;;;;;;25.80;3.35;;;;;;;3.51;100.00;102995.28;5057802;28;20060;-44
2022/01/30 07:57:14;;;;;;;29.17;3.28;;;;;;;3.53;100.00;102990.78;5060356;28;20023;-48
2022/01/30 07:59:41;;;;;;;27.13;3.67;;;;;;;3.52;100.00;102997.00;5060285;28;20044;-46
2022/01/30 08:02:06;;;;;;;27.60;3.20;;;;;;;3.52;100.00;102994.38;5063176;28;20298;-46
2022/01/30 08:04:31;;;;;;;22.85;3.30;;;;;;;3.54;100.00;102989.88;5064345;28;20117;-45
2022/01/30 08:06:56;;;;;;;27.92;2.67;;;;;;;3.56;100.00;102998.59;5064377;28;20360;-44
2022/01/30 08:09:22;;;;;;;22.50;2.65;;;;;;;3.55;100.00;102995.09;5062382;28;20024;-43
2022/01/30 08:11:47;;;;;;;25.10;2.85;;;;;;;3.54;100.00;103003.06;5064058;28;20612;-45
2022/01/30 08:14:12;;;;;;;21.65;2.85;;;;;;;3.57;100.00;103005.59;5060477;28;20024;-45
2022/01/30 08:16:39;;;;;;;26.92;3.90;;;;;;;3.61;100.00;103008.97;5063183;28;20033;-46
2022/01/30 08:19:04;;;;;;;32.60;3.28;;;;;;;3.63;100.00;103005.38;5063917;28;20032;-46
2022/01/30 08:21:30;;;;;;;34.40;3.47;;;;;;;3.76;100.00;103011.00;5055279;28;20422;-47
2022/01/30 08:23:56;;;;;;;25.50;2.95;;;;;;;3.88;100.00;103012.25;5055970;28;20036;-45
2022/01/30 08:26:21;;;;;;;26.73;3.25;;;;;;;3.99;99.90;103014.44;5052839;28;20066;-46
2022/01/30 08:28:46;;;;;;;30.05;2.70;;;;;;;4.08;99.43;103008.78;5054467;28;20035;-45
2022/01/30 08:31:12;;;;;;;27.90;3.28;;;;;;;4.14;98.88;102997.97;5054594;28;20028;-48
2022/01/30 08:33:37;;;;;;;21.15;3.17;;;;;;;4.19;99.39;103008.31;5054223;28;20024;-44
2022/01/30 08:36:02;;;;;;;28.10;2.63;;;;;;;4.24;98.95;103012.50;5053816;28;20387;-47
2022/01/30 08:38:28;;;;;;;31.30;3.67;;;;;;;4.33;96.82;103015.66;5053867;28;20048;-48
2022/01/30 08:40:53;;;;;;;33.03;3.22;;;;;;;4.37;96.54;103022.53;5053346;28;20029;-45
2022/01/30 08:43:21;;;;;;;35.40;3.58;;;;;;;4.38;97.53;103018.97;5053538;28;20065;-44
2022/01/30 08:45:48;;;;;;;30.45;3.22;;;;;;;4.40;96.92;103019.78;5053779;28;20218;-46
2022/01/30 08:48:14;;;;;;;23.50;2.72;;;;;;;4.46;95.76;103022.13;5054833;28;20067;-43
2022/01/30 08:50:39;;;;;;;31.88;3.60;;;;;;;4.50;96.63;103034.31;5052507;28;20546;-46
2022/01/30 08:53:05;;;;;;;33.67;3.60;;;;;;;4.48;96.01;103033.50;5052796;28;20204;-49
2022/01/30 08:55:30;;;;;;;29.45;3.65;;;;;;;4.45;96.96;103031.00;5053576;28;20140;-48
2022/01/30 08:57:57;;;;;;;37.22;3.90;;;;;;;4.43;95.99;103027.56;5053290;28;20188;-45
2022/01/30 09:00:23;;;;;;;24.67;3.08;;;;;;;4.47;95.36;103032.66;5053209;28;20208;-45
2022/01/30 09:02:48;;;;;;;26.80;3.20;;;;;;;4.56;95.71;103038.47;5068131;28;20020;-44
2022/01/30 09:05:13;;;;;;;32.55;3.50;;;;;;;4.60;95.17;103032.09;5074445;28;20356;-48
2022/01/30 09:07:39;;;;;;;29.13;3.85;;;;;;;4.64;93.80;103034.56;5074643;28;20032;-43
2022/01/30 09:10:07;;;;;;;34.80;4.10;;;;;;;4.70;94.67;103035.19;5067011;28;20048;-43
2022/01/30 09:12:34;;;;;;;27.23;3.00;;;;;;;4.76;93.80;103035.78;5057352;28;20033;-43
2022/01/30 09:15:00;;;;;;;26.58;2.80;;;;;;;4.85;93.09;103037.16;5049553;28;20017;-46
2022/01/30 09:17:28;;;;;;;33.50;3.10;;;;;;;4.96;94.62;103042.84;5019982;28;20326;-48
2022/01/30 09:19:53;;;;;;;26.75;3.38;;;;;;;5.08;93.39;103062.59;5037619;28;20068;-46
2022/01/30 09:22:19;;;;;;;39.92;4.72;;;;;;;5.20;90.49;103053.22;5037864;28;20453;-46
2022/01/30 09:24:46;;;;;;;33.70;3.90;;;;;;;5.20;92.20;103053.22;5037169;28;20044;-47
2022/01/30 09:27:11;;;;;;;30.20;3.97;;;;;;;5.21;90.81;103055.81;5037576;28;20013;-46
2022/01/30 09:29:38;;;;;;;33.05;3.67;;;;;;;5.27;91.92;103067.06;5037855;28;20033;-43
2022/01/30 09:32:05;;;;;;;33.58;3.72;;;;;;;5.29;90.74;103063.38;5036538;28;20017;-45
2022/01/30 09:34:31;;;;;;;33.55;3.67;;;;;;;5.29;89.98;103063.38;5037109;28;20090;-48
2022/01/30 09:36:57;;;;;;;26.15;3.22;;;;;;;5.37;91.03;103070.97;5018349;28;20013;-44
2022/01/30 09:39:23;;;;;;;32.55;3.70;;;;;;;5.46;88.87;103078.47;5038648;28;20382;-45
2022/01/30 09:41:50;;;;;;;31.63;3.65;;;;;;;5.58;89.04;103077.03;5045023;28;20119;-46
2022/01/30 09:44:17;;;;;;;32.10;3.80;;;;;;;5.59;90.20;103084.94;5031561;28;20040;-45
2022/01/30 09:46:43;;;;;;;38.80;4.05;;;;;;;5.53;91.65;103081.72;5055800;28;20383;-45
2022/01/30 09:49:10;;;;;;;34.85;4.03;;;;;;;5.41;90.70;103091.09;5056751;28;20064;-46
2022/01/30 09:51:38;;;;;;;32.17;3.78;;;;;;;5.27;91.45;103081.16;5035078;28;20210;-44
2022/01/30 09:54:04;;;;;;;40.28;3.78;;;;;;;5.29;90.71;103081.06;5055533;28;20328;-45
2022/01/30 09:56:29;;;;;;;30.65;3.53;;;;;;;5.30;92.37;103078.34;5056636;28;20299;-45
2022/01/30 09:58:55;;;;;;;36.03;4.63;;;;;;;5.35;93.37;103079.00;5043044;28;20129;-46
2022/01/30 10:01:20;;;;;;;32.95;3.35;;;;;;;5.44;93.35;103083.00;5038482;28;20025;-44
2022/01/30 10:03:49;;;;;;;44.45;4.25;;;;;;;5.53;91.63;103092.31;5037523;28;20123;-45
2022/01/30 10:06:20;;;;;;;33.75;3.58;;;;;;;5.60;90.44;103096.38;5038519;28;20040;-44
2022/01/30 10:08:48;;;;;;;33.17;3.83;;;;;;;5.65;91.44;103105.00;5047417;28;20026;-45
2022/01/30 10:11:41;;;;;;;30.65;3.75;;;;;;;5.70;91.32;103104.75;5053441;28;20115;-47
2022/01/30 10:14:16;;;;;;;33.13;4.63;;;;;;;5.77;90.61;103115.00;5054797;28;20111;-46
2022/01/30 10:16:46;;;;;;;31.35;4.55;;;;;;;5.86;90.22;103120.81;5056578;28;20044;-44
2022/01/30 10:19:17;;;;;;;31.40;3.75;;;;;;;5.95;90.34;103115.03;5054594;28;20032;-45
2022/01/30 10:21:44;;;;;;;42.80;4.40;;;;;;;5.94;89.48;103108.91;5057068;28;20105;-45
2022/01/30 10:24:23;;;;;;;39.88;4.55;;;;;;;6.05;90.47;103118.16;5054732;28;20111;-45
2022/01/30 10:26:50;;;;;;;39.50;4.72;;;;;;;6.07;90.33;103111.81;5045083;28;20056;-44
2022/01/30 10:29:20;;;;;;;34.72;3.80;;;;;;;6.15;89.53;103117.59;5057172;28;20529;-47
2022/01/30 10:32:05;;;;;;;42.65;4.85;;;;;;;6.20;87.86;103120.03;5059879;28;20025;-43
2022/01/30 10:34:32;;;;;;;30.83;3.65;;;;;;;6.26;87.60;103124.16;5050062;28;20020;-44
2022/01/30 10:37:21;;;;;;;32.42;3.90;;;;;;;6.31;87.67;103115.06;5054947;28;20433;-46
2022/01/30 10:39:54;;;;;;;27.88;3.38;;;;;;;6.37;89.50;103115.69;5055382;28;20462;-45
2022/01/30 10:42:41;;;;;;;33.38;3.80;;;;;;;6.45;88.85;103114.38;5041265;28;20075;-43
2022/01/30 10:45:12;;;;;;;34.28;4.13;;;;;;;6.49;84.80;103113.25;5047249;28;20048;-43
2022/01/30 10:47:38;;;;;;;38.60;4.00;;;;;;;6.55;86.82;103112.06;5057891;28;20033;-45
2022/01/30 10:50:16;;;;;;;43.65;3.88;;;;;;;6.66;85.59;103115.03;5052551;28;20135;-45
2022/01/30 10:52:56;;;;;;;27.75;3.60;;;;;;;6.81;86.65;103105.41;5043992;28;20346;-46
2022/01/30 10:55:39;;;;;;;35.03;3.83;;;;;;;6.96;84.62;103102.88;5047620;28;20028;-45
2022/01/30 10:58:07;;;;;;;35.90;3.85;;;;;;;7.10;85.15;103101.22;5038747;28;20448;-47
2022/01/30 11:00:59;;;;;;;34.05;3.92;;;;;;;7.26;82.77;103103.03;5038849;28;20044;-47
2022/01/30 11:03:45;;;;;;;36.15;3.65;;;;;;;7.35;81.76;103099.88;5046180;28;20516;-44
2022/01/30 11:06:14;;;;;;;46.33;4.38;;;;;;;7.35;81.40;103091.03;5037350;28;20083;-43
2022/01/30 11:08:43;;;;;;;27.17;3.50;;;;;;;7.19;78.16;103089.22;5037260;28;20056;-45
2022/01/30 11:19:16;;;;;;;33.17;3.75;;;;;;;7.12;78.33;103082.53;5055039;28;20131;-43
2022/01/30 11:21:43;;;;;;;32.50;3.85;;;;;;;7.23;77.29;103081.94;5036601;28;20021;-46
2022/01/30 11:24:12;;;;;;;33.72;4.40;;;;;;;7.33;77.54;103074.31;5036132;28;20035;-48
2022/01/30 11:26:38;;;;;;;33.40;4.38;;;;;;;7.48;77.12;103070.81;5035443;28;20032;-46
2022/01/30 11:29:07;;;;;;;32.25;3.50;;;;;;;7.70;76.45;103062.47;5052947;28;20028;-44
2022/01/30 11:31:34;;;;;;;34.90;3.58;;;;;;;7.98;73.98;103063.56;5052097;28;20024;-43
2022/01/30 11:34:01;;;;;;;32.40;3.30;;;;;;;8.01;72.61;103066.00;5052770;28;20047;-45
2022/01/30 11:36:26;;;;;;;34.10;4.93;;;;;;;8.11;73.26;103061.91;5052727;28;20028;-44
2022/01/30 11:38:52;;;;;;;34.92;4.55;;;;;;;8.29;71.49;103062.59;5050855;28;20036;-44
2022/01/30 11:41:19;;;;;;;33.55;3.80;;;;;;;8.30;71.40;103060.78;5048846;28;20091;-47
2022/01/30 11:44:19;;;;;;;30.25;3.33;;;;;;;8.38;72.02;103066.50;5049939;28;20039;-45
2022/01/30 11:46:56;;;;;;;36.85;4.15;;;;;;;8.20;69.79;103056.00;5052860;28;20102;-45
2022/01/30 11:49:21;;;;;;;37.53;3.78;;;;;;;8.30;69.95;103074.09;5049334;28;20035;-46
2022/01/30 11:51:51;;;;;;;33.92;4.13;;;;;;;8.19;70.77;103059.63;5035802;28;20029;-46
2022/01/30 11:54:43;;;;;;;36.28;3.78;;;;;;;8.06;74.06;103060.44;5050919;28;20032;-47
2022/01/30 11:57:37;;;;;;;;;;;;;;;8.09;75.30;103063.75;5050474;28;20059;-45
2022/01/30 12:00:05;;;;;;;30.67;3.25;;;;;;;8.03;72.72;103048.19;5036980;28;20166;-44
2022/01/30 12:02:35;;;;;;;33.20;4.00;;;;;;;8.15;73.78;103055.44;5035016;28;20048;-47
2022/01/30 12:05:02;;;;;;;31.85;4.13;;;;;;;8.44;73.93;103060.84;5035531;28;20135;-45
2022/01/30 12:07:36;;;;;;;33.22;3.92;;;;;;;8.67;73.60;103070.13;5034981;28;20025;-48
2022/01/30 12:10:19;;;;;;;39.08;3.63;;;;;;;8.71;72.37;103063.66;5034915;28;20107;-45
2022/01/30 12:12:50;;;;;;;41.53;4.22;;;;;;;8.57;74.84;103067.16;5034777;28;20024;-43
2022/01/30 12:15:46;;;;;;;42.15;5.13;;;;;;;8.25;75.16;103054.88;5035506;28;20051;-45
2022/01/30 12:18:44;;;;;;;34.20;4.05;;;;;;;7.94;72.83;103054.91;5050511;28;20029;-45
2022/01/30 12:21:14;;;;;;;38.13;4.18;;;;;;;7.76;73.60;103058.63;5028862;28;20048;-44
2022/01/30 12:23:41;;;;;;;39.95;3.88;;;;;;;7.80;72.64;103052.16;5034429;28;20410;-45
2022/01/30 12:26:14;;;;;;;36.75;4.47;;;;;;;8.04;73.61;103060.50;5034498;28;20117;-47
2022/01/30 12:28:40;;;;;;;35.10;4.53;;;;;;;8.29;72.26;103053.75;5035781;28;20033;-44
2022/01/30 12:31:32;;;;;;;40.90;4.03;;;;;;;8.55;71.85;103058.41;5035007;28;20488;-44